createdAt,value
2022-11-29T00:00:49.495Z,77.57
2022-11-29T00:03:34.998Z,77.66
2022-11-29T00:06:28.544Z,77.03
2022-11-29T00:09:13.939Z,77.14
2022-11-29T00:12:14.180Z,77.13
2022-11-29T00:14:59.922Z,77.08
2022-11-29T00:17:45.202Z,76.96
2022-11-29T00:20:30.877Z,77.13
2022-11-29T00:23:16.762Z,77.19
2022-11-29T00:26:07.117Z,77.60
2022-11-29T00:28:52.977Z,77.09
2022-11-29T00:31:38.917Z,76.73
2022-11-29T00:34:24.489Z,76.57
2022-11-29T00:37:09.856Z,76.92
2022-11-29T00:39:55.321Z,77.61
2022-11-29T00:42:40.914Z,77.10
2022-11-29T00:45:26.089Z,77.03
2022-11-29T00:48:11.496Z,76.93
2022-11-29T00:50:56.938Z,76.99
2022-11-29T00:53:42.275Z,76.96
2022-11-29T00:56:27.985Z,76.89
2022-11-29T00:59:13.631Z,76.93
2022-11-29T01:01:58.837Z,77.18
2022-11-29T01:04:44.418Z,76.94
2022-11-29T01:07:29.855Z,77.04
2022-11-29T01:10:15.472Z,77.39
2022-11-29T01:13:01.001Z,76.91
2022-11-29T01:15:46.213Z,76.74
2022-11-29T01:18:32.220Z,77.46
2022-11-29T01:21:20.121Z,77.06
2022-11-29T01:24:05.659Z,77.23
2022-11-29T01:26:51.334Z,77.00
2022-11-29T01:29:36.684Z,77.08
2022-11-29T01:32:22.096Z,76.93
2022-11-29T01:35:07.935Z,77.21
2022-11-29T01:37:53.485Z,77.29
2022-11-29T01:40:39.051Z,77.21
2022-11-29T01:43:24.346Z,77.36
2022-11-29T01:46:11.790Z,77.13
2022-11-29T01:49:02.246Z,77.23
2022-11-29T01:51:55.654Z,77.03
2022-11-29T01:54:46.152Z,77.54
2022-11-29T01:57:33.852Z,77.25
2022-11-29T02:00:19.961Z,77.05
2022-11-29T02:03:11.148Z,76.94
2022-11-29T02:05:56.896Z,77.35
2022-11-29T02:08:43.000Z,77.21
2022-11-29T02:11:47.353Z,77.25
2022-11-29T02:14:32.985Z,77.19
2022-11-29T02:17:33.831Z,77.01
2022-11-29T02:20:42.206Z,76.93
2022-11-29T02:23:46.671Z,77.01
2022-11-29T02:26:31.829Z,77.21
2022-11-29T02:29:31.783Z,77.23
2022-11-29T02:32:39.082Z,77.11
2022-11-29T02:35:46.384Z,76.45
2022-11-29T02:38:46.678Z,77.05
2022-11-29T02:41:49.612Z,76.56
2022-11-29T02:44:34.856Z,76.64
2022-11-29T02:47:32.756Z,76.60
2022-11-29T02:50:21.541Z,76.31
2022-11-29T02:53:30.262Z,76.03
2022-11-29T02:56:43.237Z,76.50
2022-11-29T03:00:06.583Z,76.79
2022-11-29T03:02:51.896Z,76.40
2022-11-29T03:05:52.760Z,76.15
2022-11-29T03:09:24.026Z,76.52
2022-11-29T03:12:26.069Z,76.29
2022-11-29T03:15:11.588Z,76.45
2022-11-29T03:18:26.393Z,76.41
2022-11-29T03:21:24.077Z,76.11
2022-11-29T03:24:23.960Z,76.27
2022-11-29T03:27:14.496Z,76.37
2022-11-29T03:30:04.310Z,75.92
2022-11-29T03:33:13.029Z,76.38
2022-11-29T03:36:37.747Z,76.76
2022-11-29T03:39:33.242Z,76.75
2022-11-29T03:42:54.983Z,76.46
2022-11-29T03:45:51.972Z,76.85
2022-11-29T03:49:13.464Z,76.64
2022-11-29T03:52:05.830Z,76.42
2022-11-29T03:55:18.916Z,76.16
2022-11-29T03:58:30.054Z,76.52
2022-11-29T04:01:21.773Z,76.73
2022-11-29T04:04:49.194Z,76.69
2022-11-29T04:07:47.807Z,76.78
2022-11-29T04:10:57.190Z,77.06
2022-11-29T04:14:23.857Z,76.93
2022-11-29T04:17:41.578Z,77.41
2022-11-29T04:20:48.133Z,77.12
2022-11-29T04:23:55.791Z,77.10
2022-11-29T04:26:56.460Z,77.21
2022-11-29T04:29:51.232Z,77.31
2022-11-29T04:32:55.656Z,77.36
2022-11-29T04:36:14.990Z,77.29
2022-11-29T04:39:03.529Z,77.21
2022-11-29T04:42:07.873Z,77.11
2022-11-29T04:45:09.010Z,77.03
2022-11-29T04:48:22.454Z,77.02
2022-11-29T04:51:35.926Z,77.07
2022-11-29T04:55:02.476Z,77.30
2022-11-29T04:57:57.786Z,76.96
2022-11-29T05:00:57.318Z,76.72
2022-11-29T05:03:55.377Z,77.21
2022-11-29T05:06:58.037Z,76.92
2022-11-29T05:10:20.781Z,76.83
2022-11-29T05:13:25.924Z,77.29
2022-11-29T05:16:29.692Z,76.86
2022-11-29T05:19:25.351Z,77.26
2022-11-29T05:22:26.434Z,77.39
2022-11-29T05:25:37.804Z,77.50
2022-11-29T05:28:58.142Z,77.41
2022-11-29T05:32:17.408Z,76.99
2022-11-29T05:35:27.640Z,77.73
2022-11-29T05:38:19.166Z,77.22
2022-11-29T05:41:34.638Z,77.60
2022-11-29T05:44:36.994Z,77.10
2022-11-29T05:47:31.529Z,77.70
2022-11-29T05:50:32.690Z,77.20
2022-11-29T05:53:37.029Z,76.89
2022-11-29T05:56:48.885Z,76.73
2022-11-29T05:59:38.927Z,76.59
2022-11-29T06:02:27.506Z,75.88
2022-11-29T06:05:31.912Z,76.02
2022-11-29T06:08:29.970Z,75.64
2022-11-29T06:11:38.145Z,75.56
2022-11-29T06:14:48.339Z,75.33
2022-11-29T06:17:40.165Z,75.83
2022-11-29T06:20:44.252Z,75.56
2022-11-29T06:23:29.759Z,75.25
2022-11-29T06:26:46.097Z,75.28
2022-11-29T06:29:34.428Z,75.16
2022-11-29T06:32:48.064Z,75.05
2022-11-29T06:36:07.407Z,74.83
2022-11-29T06:38:52.994Z,75.13
2022-11-29T06:41:38.370Z,74.79
2022-11-29T06:44:28.507Z,74.45
2022-11-29T06:47:25.669Z,74.45
2022-11-29T06:50:34.032Z,74.25
2022-11-29T06:53:39.468Z,74.77
2022-11-29T06:56:35.448Z,74.03
2022-11-29T06:59:49.121Z,74.48
2022-11-29T07:03:11.224Z,74.77
2022-11-29T07:05:58.265Z,74.67
2022-11-29T07:08:45.471Z,74.65
2022-11-29T07:11:31.134Z,74.87
2022-11-29T07:14:17.351Z,74.74
2022-11-29T07:17:15.632Z,74.58
2022-11-29T07:20:24.709Z,74.62
2022-11-29T07:23:29.916Z,74.68
2022-11-29T07:26:35.180Z,74.28
2022-11-29T07:29:20.405Z,74.22
2022-11-29T07:32:34.495Z,74.66
2022-11-29T07:35:32.007Z,74.60
2022-11-29T07:38:52.922Z,74.46
2022-11-29T07:41:50.999Z,74.39
2022-11-29T07:44:44.069Z,74.63
2022-11-29T07:47:35.342Z,73.97
2022-11-29T07:50:21.962Z,74.16
2022-11-29T07:53:09.167Z,74.56
2022-11-29T07:55:54.996Z,74.28
2022-11-29T07:58:40.608Z,74.14
2022-11-29T08:01:26.088Z,73.38
2022-11-29T08:04:11.617Z,73.56
2022-11-29T08:07:00.956Z,73.86
2022-11-29T08:09:46.964Z,73.67
2022-11-29T08:12:32.909Z,73.41
2022-11-29T08:15:19.804Z,73.53
2022-11-29T08:18:05.365Z,73.28
2022-11-29T08:20:51.101Z,73.00
2022-11-29T08:23:36.470Z,72.61
2022-11-29T08:26:25.545Z,72.29
2022-11-29T08:29:15.593Z,72.45
2022-11-29T08:32:01.722Z,72.79
2022-11-29T08:34:47.836Z,72.92
2022-11-29T08:37:33.409Z,72.36
2022-11-29T08:40:18.899Z,72.95
2022-11-29T08:43:04.359Z,73.12
2022-11-29T08:45:53.031Z,72.88
2022-11-29T08:48:39.116Z,73.13
2022-11-29T08:51:24.744Z,73.30
2022-11-29T08:54:10.543Z,73.37
2022-11-29T08:57:38.578Z,73.13
2022-11-29T09:00:02.038Z,73.21
2022-11-29T09:02:48.275Z,73.16
2022-11-29T09:05:33.753Z,72.75
2022-11-29T09:08:19.416Z,72.71
2022-11-29T09:11:13.885Z,73.12
2022-11-29T09:14:02.436Z,73.58
2022-11-29T09:16:48.266Z,73.47
2022-11-29T09:19:33.583Z,73.16
2022-11-29T09:22:18.989Z,73.19
2022-11-29T09:25:04.850Z,73.65
2022-11-29T09:27:50.691Z,73.31
2022-11-29T09:30:38.208Z,73.18
2022-11-29T09:33:23.634Z,73.48
2022-11-29T09:36:11.035Z,73.49
2022-11-29T09:39:02.805Z,73.63
2022-11-29T09:42:14.686Z,73.76
2022-11-29T09:45:07.731Z,73.74
2022-11-29T09:48:21.964Z,73.59
2022-11-29T09:51:30.528Z,73.87
2022-11-29T09:55:11.661Z,73.78
2022-11-29T09:57:59.544Z,73.53
2022-11-29T10:00:56.883Z,73.71
2022-11-29T10:03:46.854Z,73.85
2022-11-29T10:06:43.526Z,74.07
2022-11-29T10:09:38.483Z,73.70
2022-11-29T10:12:56.727Z,73.89
2022-11-29T10:15:45.776Z,74.01
2022-11-29T10:18:57.395Z,74.05
2022-11-29T10:21:52.288Z,74.04
2022-11-29T10:24:38.398Z,73.56
2022-11-29T10:27:24.962Z,73.47
2022-11-29T10:30:16.256Z,73.73
2022-11-29T10:33:02.602Z,74.15
2022-11-29T10:35:51.143Z,74.17
2022-11-29T10:38:36.641Z,74.19
2022-11-29T10:41:22.915Z,74.24
2022-11-29T10:44:13.201Z,73.87
2022-11-29T10:47:02.325Z,73.86
2022-11-29T10:49:49.062Z,73.97
2022-11-29T10:52:34.957Z,74.36
2022-11-29T10:55:22.809Z,74.02
2022-11-29T10:58:24.698Z,74.25
2022-11-29T11:01:15.951Z,74.18
2022-11-29T11:04:04.340Z,74.15
2022-11-29T11:06:55.728Z,74.10
2022-11-29T11:09:48.499Z,74.23
2022-11-29T11:12:37.164Z,74.55
2022-11-29T11:15:31.700Z,74.55
2022-11-29T11:18:23.901Z,74.31
2022-11-29T11:21:13.083Z,74.40
2022-11-29T11:24:02.691Z,74.88
2022-11-29T11:26:48.233Z,74.62
2022-11-29T11:29:44.475Z,74.69
2022-11-29T11:32:30.743Z,75.05
2022-11-29T11:35:24.411Z,74.93
2022-11-29T11:38:17.256Z,75.88
2022-11-29T11:41:23.901Z,75.53
2022-11-29T11:44:45.826Z,75.17
2022-11-29T11:47:30.288Z,75.14
2022-11-29T11:50:25.318Z,75.16
2022-11-29T11:53:27.888Z,74.81
2022-11-29T11:56:14.271Z,74.87
2022-11-29T11:59:00.323Z,75.15
2022-11-29T12:01:46.298Z,75.12
2022-11-29T12:04:35.783Z,75.70
2022-11-29T12:08:06.117Z,75.50
2022-11-29T12:10:41.741Z,75.12
2022-11-29T12:13:33.460Z,75.20
2022-11-29T12:16:28.745Z,75.04
2022-11-29T12:19:22.951Z,75.62
2022-11-29T12:22:18.044Z,75.20
2022-11-29T12:25:10.637Z,74.94
2022-11-29T12:27:56.326Z,75.05
2022-11-29T12:31:20.756Z,76.67
2022-11-29T12:34:12.716Z,75.27
2022-11-29T12:37:23.097Z,75.09
2022-11-29T12:41:07.227Z,75.27
2022-11-29T12:44:17.107Z,75.57
2022-11-29T12:47:38.975Z,75.66
2022-11-29T12:55:09.001Z,75.44
2022-11-29T12:58:14.283Z,75.21
2022-11-29T13:01:11.941Z,75.43
2022-11-29T13:04:19.192Z,75.87
2022-11-29T13:07:26.690Z,75.40
2022-11-29T13:10:20.146Z,75.41
2022-11-29T13:13:20.158Z,75.24
2022-11-29T13:16:31.060Z,75.56
2022-11-29T13:19:35.958Z,75.31
2022-11-29T13:22:45.272Z,75.11
2022-11-29T13:48:37.431Z,74.65
2022-11-29T13:51:37.921Z,74.52
2022-11-29T13:54:30.964Z,74.69
2022-11-29T13:57:17.075Z,74.76
2022-11-29T14:20:32.460Z,75.14
2022-11-29T14:23:32.733Z,74.96
2022-11-29T14:26:28.672Z,75.11
2022-11-29T14:29:49.845Z,75.06
2022-11-29T14:32:58.368Z,74.96
2022-11-29T14:35:48.872Z,75.14
2022-11-29T14:38:48.609Z,75.08
2022-11-29T14:41:55.608Z,75.16
2022-11-29T14:44:53.101Z,74.91
2022-11-29T14:47:49.013Z,74.67
2022-11-29T14:54:15.989Z,74.95
2022-11-29T14:57:39.662Z,74.55
2022-11-29T15:00:50.872Z,74.24
2022-11-29T15:03:42.938Z,74.23
2022-11-29T15:06:32.036Z,74.28
2022-11-29T15:09:21.068Z,74.49
2022-11-29T15:12:17.180Z,74.70
2022-11-29T15:15:27.782Z,75.15
2022-11-29T15:18:22.074Z,75.13
2022-11-29T15:21:12.712Z,74.88
2022-11-29T15:24:03.489Z,74.60
2022-11-29T15:27:12.736Z,75.00
2022-11-29T15:29:59.964Z,74.81
2022-11-29T15:32:46.339Z,74.91
2022-11-29T15:35:33.698Z,75.04
2022-11-29T15:38:21.336Z,75.22
2022-11-29T15:41:19.265Z,75.06
2022-11-29T15:44:07.341Z,74.86
2022-11-29T15:46:52.625Z,75.42
2022-11-29T15:49:38.063Z,74.61
2022-11-29T15:52:31.702Z,74.78
2022-11-29T15:55:17.415Z,74.90
2022-11-29T15:58:08.742Z,74.29
2022-11-29T16:00:54.957Z,74.45
2022-11-29T16:03:49.184Z,74.52
2022-11-29T16:06:44.294Z,74.43
2022-11-29T16:09:39.188Z,74.39
2022-11-29T16:12:25.201Z,74.33
2022-11-29T16:15:25.114Z,74.22
2022-11-29T16:18:14.230Z,74.47
2022-11-29T16:21:05.698Z,74.28
2022-11-29T16:23:51.393Z,74.30
2022-11-29T16:26:40.956Z,74.43
2022-11-29T16:29:35.926Z,74.56
2022-11-29T16:32:35.609Z,74.66
2022-11-29T16:35:28.574Z,74.67
2022-11-29T16:38:22.904Z,74.50
2022-11-29T16:41:21.662Z,74.44
2022-11-29T16:44:39.945Z,74.45
2022-11-29T16:47:31.740Z,74.39
2022-11-29T16:50:19.884Z,74.11
2022-11-29T16:53:42.408Z,74.42
2022-11-29T16:56:30.402Z,74.20
2022-11-29T16:59:17.068Z,74.13
2022-11-29T17:02:13.937Z,74.34
2022-11-29T17:05:00.087Z,74.42
2022-11-29T17:07:46.079Z,74.41
2022-11-29T17:10:33.669Z,74.46
2022-11-29T17:13:20.125Z,74.38
2022-11-29T17:16:11.692Z,74.45
2022-11-29T17:18:57.707Z,74.54
2022-11-29T17:21:44.023Z,74.63
2022-11-29T17:24:29.274Z,74.54
2022-11-29T17:27:15.096Z,74.61
2022-11-29T17:30:00.959Z,74.84
2022-11-29T17:32:46.401Z,74.38
2022-11-29T17:35:35.683Z,74.91
2022-11-29T17:38:21.178Z,74.59
2022-11-29T17:41:13.608Z,74.26
2022-11-29T17:44:02.678Z,74.31
2022-11-29T17:46:48.198Z,74.52
2022-11-29T17:49:33.544Z,74.49
2022-11-29T17:52:18.815Z,74.56
2022-11-29T17:55:04.719Z,74.94
2022-11-29T17:57:50.252Z,74.79
2022-11-29T18:00:40.680Z,74.74
2022-11-29T18:03:26.419Z,74.83
2022-11-29T18:06:19.618Z,74.98
2022-11-29T18:09:15.600Z,74.95
2022-11-29T18:12:02.819Z,75.20
2022-11-29T18:14:50.191Z,74.89
2022-11-29T18:17:36.517Z,75.16
2022-11-29T18:20:22.445Z,74.98
2022-11-29T18:23:08.222Z,74.98
2022-11-29T18:26:03.031Z,75.23
2022-11-29T18:28:52.862Z,74.89
2022-11-29T18:31:58.962Z,75.02
2022-11-29T18:34:46.593Z,75.19
2022-11-29T18:38:05.183Z,75.31
2022-11-29T18:40:42.795Z,75.56
2022-11-29T18:43:28.398Z,75.20
2022-11-29T18:46:17.982Z,75.44
2022-11-29T18:49:08.674Z,75.30
2022-11-29T18:51:54.479Z,75.35
2022-11-29T18:54:39.781Z,75.27
2022-11-29T18:57:25.321Z,75.40
2022-11-29T19:00:11.427Z,75.50
2022-11-29T19:02:56.735Z,75.44
2022-11-29T19:05:50.346Z,75.35
2022-11-29T19:08:36.652Z,75.30
2022-11-29T19:11:24.848Z,75.46
2022-11-29T19:14:12.738Z,75.25
2022-11-29T19:16:58.237Z,75.60
2022-11-29T19:19:43.999Z,75.57
2022-11-29T19:22:30.920Z,75.32
2022-11-29T19:25:16.620Z,75.40
2022-11-29T19:28:01.977Z,75.58
2022-11-29T19:30:54.260Z,75.19
2022-11-29T19:33:41.286Z,75.52
2022-11-29T19:36:28.585Z,75.49
2022-11-29T19:39:16.964Z,75.89
2022-11-29T19:42:02.527Z,75.77
2022-11-29T19:45:16.034Z,76.14
2022-11-29T19:47:53.334Z,76.18
2022-11-29T19:50:38.755Z,76.16
2022-11-29T19:53:24.084Z,75.92
2022-11-29T19:56:13.317Z,75.91
2022-11-29T19:59:01.959Z,75.27
2022-11-29T20:01:47.534Z,75.67
2022-11-29T20:04:32.904Z,75.60
2022-11-29T20:07:18.588Z,75.75
2022-11-29T20:10:04.160Z,75.65
2022-11-29T20:12:49.823Z,75.54
2022-11-29T20:15:36.207Z,75.63
2022-11-29T20:18:21.769Z,75.72
2022-11-29T20:21:11.099Z,75.83
2022-11-29T20:23:59.062Z,75.53
2022-11-29T20:26:47.249Z,75.55
2022-11-29T20:29:32.945Z,75.60
2022-11-29T20:32:19.255Z,75.85
2022-11-29T20:35:04.835Z,75.87
2022-11-29T20:38:16.914Z,75.82
2022-11-29T20:41:19.453Z,75.79
2022-11-29T20:44:05.208Z,75.56
2022-11-29T20:46:50.853Z,76.16
2022-11-29T20:49:36.350Z,76.10
2022-11-29T20:52:38.147Z,76.38
2022-11-29T20:55:23.992Z,76.53
2022-11-29T20:58:09.498Z,75.63
2022-11-29T21:00:55.856Z,75.51
2022-11-29T21:03:41.574Z,74.72
2022-11-29T21:06:26.828Z,75.20
2022-11-29T21:09:12.240Z,74.89
2022-11-29T21:11:57.998Z,74.90
2022-11-29T21:14:44.213Z,75.17
2022-11-29T21:17:33.748Z,75.01
2022-11-29T21:20:25.580Z,75.06
2022-11-29T21:23:22.867Z,74.75
2022-11-29T21:26:15.247Z,74.67
2022-11-29T21:29:12.651Z,74.57
2022-11-29T21:31:58.379Z,74.52
2022-11-29T21:34:44.260Z,74.69
2022-11-29T21:37:31.209Z,75.13
2022-11-29T21:40:17.425Z,74.96
2022-11-29T21:43:03.061Z,74.97
2022-11-29T21:45:48.564Z,74.59
2022-11-29T21:48:37.814Z,74.83
2022-11-29T21:51:23.349Z,74.43
2022-11-29T21:54:08.770Z,74.92
2022-11-29T21:56:54.886Z,74.56
2022-11-29T21:59:40.194Z,74.86
2022-11-29T22:02:25.660Z,74.04
2022-11-29T22:05:10.809Z,74.61
2022-11-29T22:07:56.630Z,74.63
2022-11-29T22:10:42.245Z,74.78
2022-11-29T22:13:27.537Z,75.05
2022-11-29T22:16:13.115Z,74.83
2022-11-29T22:18:58.353Z,75.08
2022-11-29T22:21:45.856Z,74.89
2022-11-29T22:24:33.845Z,75.59
2022-11-29T22:27:20.784Z,74.82
2022-11-29T22:30:07.478Z,74.98
2022-11-29T22:32:53.068Z,74.75
2022-11-29T22:35:44.506Z,74.96
2022-11-29T22:38:29.879Z,75.07
2022-11-29T22:41:16.561Z,75.11
2022-11-29T22:44:02.854Z,74.81
2022-11-29T22:46:48.517Z,75.29
2022-11-29T22:49:34.401Z,75.48
2022-11-29T22:52:19.742Z,75.10
2022-11-29T22:55:05.551Z,75.30
2022-11-29T22:57:53.345Z,74.83
2022-11-29T23:00:44.037Z,74.66
2022-11-29T23:03:32.417Z,74.21
2022-11-29T23:06:20.189Z,74.39
2022-11-29T23:09:18.904Z,74.22
2022-11-29T23:12:04.424Z,74.66
2022-11-29T23:14:55.803Z,74.56
2022-11-29T23:17:41.907Z,73.97
2022-11-29T23:20:27.094Z,74.53
2022-11-29T23:23:12.454Z,74.80
2022-11-29T23:25:58.634Z,74.85
2022-11-29T23:28:44.157Z,74.73
2022-11-29T23:31:29.662Z,74.59
2022-11-29T23:34:15.370Z,74.71
2022-11-29T23:37:01.050Z,74.74
2022-11-29T23:39:46.451Z,74.51
2022-11-29T23:42:31.699Z,74.40
2022-11-29T23:45:17.027Z,74.61
2022-11-29T23:48:02.374Z,74.05
2022-11-29T23:50:47.807Z,74.47
2022-11-29T23:53:33.140Z,74.74
2022-11-29T23:56:19.203Z,74.34
2022-11-29T23:59:04.695Z,74.57
